sensor_id;sensor_type;location;lat;lon;timestamp;pressure;altitude;pressure_sealevel;temperature;humidity
9415;BME280;4746;35.664;139.738;2023-03-15T00:02:09;101601.47;;;17.55;40.41
9415;BME280;4746;35.664;139.738;2023-03-15T00:04:36;101608.38;;;17.65;40.31
9415;BME280;4746;35.664;139.738;2023-03-15T00:07:04;101607.53;;;17.77;40.14
9415;BME280;4746;35.664;139.738;2023-03-15T00:09:31;101611.00;;;17.85;39.92
9415;BME280;4746;35.664;139.738;2023-03-15T00:12:03;101592.81;;;17.95;39.97
9415;BME280;4746;35.664;139.738;2023-03-15T00:14:31;101608.38;;;18.07;39.53
9415;BME280;4746;35.664;139.738;2023-03-15T00:17:01;101600.59;;;18.20;39.24
9415;BME280;4746;35.664;139.738;2023-03-15T00:19:29;101599.72;;;18.27;39.10
9415;BME280;4746;35.664;139.738;2023-03-15T00:21:57;101595.38;;;18.35;38.91
9415;BME280;4746;35.664;139.738;2023-03-15T00:24:24;101596.25;;;18.45;38.84
9415;BME280;4746;35.664;139.738;2023-03-15T00:26:52;101594.50;;;18.48;38.67
9415;BME280;4746;35.664;139.738;2023-03-15T00:29:19;101600.53;;;18.50;38.29
9415;BME280;4746;35.664;139.738;2023-03-15T00:31:47;101595.34;;;18.53;38.15
9415;BME280;4746;35.664;139.738;2023-03-15T00:34:16;101597.94;;;18.52;38.40
9415;BME280;4746;35.664;139.738;2023-03-15T00:36:46;101592.72;;;18.55;38.53
9415;BME280;4746;35.664;139.738;2023-03-15T00:39:17;101599.63;;;18.63;38.07
9415;BME280;4746;35.664;139.738;2023-03-15T00:41:44;101602.19;;;18.69;38.18
9415;BME280;4746;35.664;139.738;2023-03-15T00:44:13;101602.16;;;18.81;38.34
9415;BME280;4746;35.664;139.738;2023-03-15T00:46:40;101603.81;;;18.91;37.72
9415;BME280;4746;35.664;139.738;2023-03-15T00:49:08;101600.38;;;18.92;37.86
9415;BME280;4746;35.664;139.738;2023-03-15T00:51:36;101590.88;;;18.86;37.65
9415;BME280;4746;35.664;139.738;2023-03-15T00:54:05;101593.47;;;18.89;37.62
9415;BME280;4746;35.664;139.738;2023-03-15T00:56:36;101584.75;;;18.93;37.72
9415;BME280;4746;35.664;139.738;2023-03-15T00:59:04;101595.13;;;18.98;37.26
9415;BME280;4746;35.664;139.738;2023-03-15T01:01:31;101590.78;;;19.07;37.46
9415;BME280;4746;35.664;139.738;2023-03-15T01:04:06;101594.16;;;19.24;37.01
9415;BME280;4746;35.664;139.738;2023-03-15T01:06:44;101595.81;;;19.34;36.78
9415;BME280;4746;35.664;139.738;2023-03-15T01:09:12;101599.25;;;19.42;36.55
9415;BME280;4746;35.664;139.738;2023-03-15T01:11:39;101591.47;;;19.36;36.21
9415;BME280;4746;35.664;139.738;2023-03-15T01:14:08;101589.75;;;19.35;36.41
9415;BME280;4746;35.664;139.738;2023-03-15T01:16:37;101591.44;;;19.42;36.28
9415;BME280;4746;35.664;139.738;2023-03-15T01:19:05;101582.78;;;19.40;36.17
9415;BME280;4746;35.664;139.738;2023-03-15T01:21:33;101577.53;;;19.46;36.21
9415;BME280;4746;35.664;139.738;2023-03-15T01:24:01;101572.28;;;19.55;36.11
9415;BME280;4746;35.664;139.738;2023-03-15T01:26:28;101582.66;;;19.61;35.87
9415;BME280;4746;35.664;139.738;2023-03-15T01:28:56;101570.50;;;19.63;36.00
9415;BME280;4746;35.664;139.738;2023-03-15T01:31:28;101569.59;;;19.64;35.63
9415;BME280;4746;35.664;139.738;2023-03-15T01:33:58;101562.69;;;19.63;35.59
9415;BME280;4746;35.664;139.738;2023-03-15T01:36:26;101563.50;;;19.69;35.63
9415;BME280;4746;35.664;139.738;2023-03-15T01:38:54;101563.44;;;19.77;35.13
9415;BME280;4746;35.664;139.738;2023-03-15T01:41:22;101564.22;;;19.85;35.09
9415;BME280;4746;35.664;139.738;2023-03-15T01:43:52;101571.13;;;19.92;35.12
9415;BME280;4746;35.664;139.738;2023-03-15T01:46:31;101575.31;;;20.08;35.22
9415;BME280;4746;35.664;139.738;2023-03-15T01:49:19;101570.88;;;20.19;34.87
9415;BME280;4746;35.664;139.738;2023-03-15T01:51:52;101572.53;;;20.23;34.89
9415;BME280;4746;35.664;139.738;2023-03-15T01:54:38;101562.00;;;20.34;35.03
9415;BME280;4746;35.664;139.738;2023-03-15T01:57:37;101566.31;;;20.37;34.67
9415;BME280;4746;35.664;139.738;2023-03-15T02:00:17;101563.72;;;20.38;34.62
9415;BME280;4746;35.664;139.738;2023-03-15T02:02:57;101569.78;;;20.39;34.49
9415;BME280;4746;35.664;139.738;2023-03-15T02:05:32;101556.78;;;20.37;34.60
9415;BME280;4746;35.664;139.738;2023-03-15T02:08:01;101554.13;;;20.42;34.71
9415;BME280;4746;35.664;139.738;2023-03-15T02:10:53;101552.16;;;20.60;34.86
9415;BME280;4746;35.664;139.738;2023-03-15T02:13:24;101550.22;;;20.77;34.38
9415;BME280;4746;35.664;139.738;2023-03-15T02:15:53;101550.09;;;20.86;34.06
9415;BME280;4746;35.664;139.738;2023-03-15T02:18:22;101540.56;;;20.85;33.94
9415;BME280;4746;35.664;139.738;2023-03-15T02:24:45;101548.88;;;21.11;34.05
9415;BME280;4746;35.664;139.738;2023-03-15T02:27:32;101533.22;;;21.14;33.82
9415;BME280;4746;35.664;139.738;2023-03-15T02:30:04;101536.59;;;21.19;33.72
9415;BME280;4746;35.664;139.738;2023-03-15T02:32:32;101536.34;;;21.35;33.51
9415;BME280;4746;35.664;139.738;2023-03-15T02:35:00;101537.84;;;21.48;33.12
9415;BME280;4746;35.664;139.738;2023-03-15T02:37:27;101529.88;;;21.60;32.97
9415;BME280;4746;35.664;139.738;2023-03-15T02:39:55;101533.94;;;21.77;32.77
9415;BME280;4746;35.664;139.738;2023-03-15T02:42:22;101522.31;;;21.93;32.67
9415;BME280;4746;35.664;139.738;2023-03-15T02:44:52;101531.81;;;21.97;32.74
9415;BME280;4746;35.664;139.738;2023-03-15T02:47:31;101520.34;;;22.06;32.39
9415;BME280;4746;35.664;139.738;2023-03-15T02:49:59;101514.03;;;22.17;32.01
9415;BME280;4746;35.664;139.738;2023-03-15T02:52:27;101512.97;;;22.26;32.12
9415;BME280;4746;35.664;139.738;2023-03-15T02:54:56;101505.91;;;22.34;32.02
9415;BME280;4746;35.664;139.738;2023-03-15T02:57:24;101498.50;;;22.53;32.08
9415;BME280;4746;35.664;139.738;2023-03-15T02:59:51;101503.28;;;22.74;31.32
9415;BME280;4746;35.664;139.738;2023-03-15T03:02:21;101491.75;;;22.83;31.38
9415;BME280;4746;35.664;139.738;2023-03-15T03:04:49;101493.22;;;22.96;31.51
9415;BME280;4746;35.664;139.738;2023-03-15T03:07:18;101492.03;;;23.08;31.08
9415;BME280;4746;35.664;139.738;2023-03-15T03:09:46;101489.25;;;23.16;30.77
9415;BME280;4746;35.664;139.738;2023-03-15T03:12:14;101491.66;;;23.25;30.75
9415;BME280;4746;35.664;139.738;2023-03-15T03:14:41;101473.22;;;23.29;30.62
9415;BME280;4746;35.664;139.738;2023-03-15T03:17:09;101461.56;;;23.42;30.23
9415;BME280;4746;35.664;139.738;2023-03-15T03:19:37;101463.88;;;23.53;30.14
9415;BME280;4746;35.664;139.738;2023-03-15T03:22:06;101455.03;;;23.58;30.17
9415;BME280;4746;35.664;139.738;2023-03-15T03:24:36;101458.09;;;23.75;30.26
9415;BME280;4746;35.664;139.738;2023-03-15T03:27:04;101457.94;;;23.81;30.17
9415;BME280;4746;35.664;139.738;2023-03-15T03:29:32;101453.91;;;24.00;30.05
9415;BME280;4746;35.664;139.738;2023-03-15T03:31:59;101450.06;;;24.13;29.70
9415;BME280;4746;35.664;139.738;2023-03-15T03:34:27;101440.13;;;24.24;29.57
9415;BME280;4746;35.664;139.738;2023-03-15T03:36:54;101431.97;;;24.33;29.43
9415;BME280;4746;35.664;139.738;2023-03-15T03:39:22;101440.16;;;24.52;29.21
9415;BME280;4746;35.664;139.738;2023-03-15T03:41:49;101440.50;;;24.69;29.12
9415;BME280;4746;35.664;139.738;2023-03-15T03:44:18;101429.38;;;24.89;28.84
9415;BME280;4746;35.664;139.738;2023-03-15T03:46:46;101416.31;;;25.15;28.32
9415;BME280;4746;35.664;139.738;2023-03-15T03:49:13;101410.41;;;25.34;28.27
9415;BME280;4746;35.664;139.738;2023-03-15T03:51:41;101404.78;;;25.44;27.81
9415;BME280;4746;35.664;139.738;2023-03-15T03:54:10;101407.22;;;25.49;27.60
9415;BME280;4746;35.664;139.738;2023-03-15T03:56:37;101406.91;;;25.58;27.87
9415;BME280;4746;35.664;139.738;2023-03-15T03:59:05;101409.78;;;25.76;27.78
9415;BME280;4746;35.664;139.738;2023-03-15T04:01:33;101400.78;;;26.06;27.52
9415;BME280;4746;35.664;139.738;2023-03-15T04:04:01;101397.97;;;26.33;26.90
9415;BME280;4746;35.664;139.738;2023-03-15T04:06:29;101391.13;;;26.52;26.89
9415;BME280;4746;35.664;139.738;2023-03-15T04:08:57;101376.53;;;26.86;26.49
9415;BME280;4746;35.664;139.738;2023-03-15T04:11:25;101371.75;;;26.96;26.00
9415;BME280;4746;35.664;139.738;2023-03-15T04:13:53;101377.75;;;27.21;25.81
9415;BME280;4746;35.664;139.738;2023-03-15T04:16:21;101375.25;;;27.38;25.57
9415;BME280;4746;35.664;139.738;2023-03-15T04:18:50;101357.56;;;27.61;25.66
9415;BME280;4746;35.664;139.738;2023-03-15T04:21:17;101361.41;;;27.72;25.43
9415;BME280;4746;35.664;139.738;2023-03-15T04:23:48;101357.97;;;27.90;25.25
9415;BME280;4746;35.664;139.738;2023-03-15T04:26:16;101358.63;;;28.13;24.82
9415;BME280;4746;35.664;139.738;2023-03-15T04:28:44;101355.28;;;28.28;24.83
9415;BME280;4746;35.664;139.738;2023-03-15T04:31:11;101352.50;;;28.50;24.46
9415;BME280;4746;35.664;139.738;2023-03-15T04:33:40;101350.03;;;28.64;24.16
9415;BME280;4746;35.664;139.738;2023-03-15T04:36:09;101353.44;;;28.66;23.88
9415;BME280;4746;35.664;139.738;2023-03-15T04:38:49;101358.19;;;29.11;23.97
9415;BME280;4746;35.664;139.738;2023-03-15T04:41:17;101343.81;;;29.83;22.70
9415;BME280;4746;35.664;139.738;2023-03-15T04:43:45;101339.03;;;30.52;22.58
9415;BME280;4746;35.664;139.738;2023-03-15T04:46:13;101334.75;;;30.95;22.01
9415;BME280;4746;35.664;139.738;2023-03-15T04:48:41;101338.22;;;31.40;21.80
9415;BME280;4746;35.664;139.738;2023-03-15T04:51:08;101330.50;;;31.78;21.36
9415;BME280;4746;35.664;139.738;2023-03-15T04:53:37;101326.41;;;32.01;21.06
9415;BME280;4746;35.664;139.738;2023-03-15T04:56:06;101325.13;;;32.34;20.67
9415;BME280;4746;35.664;139.738;2023-03-15T04:58:34;101336.56;;;32.75;20.15
9415;BME280;4746;35.664;139.738;2023-03-15T05:01:01;101337.16;;;33.18;20.14
9415;BME280;4746;35.664;139.738;2023-03-15T05:03:29;101333.97;;;33.38;19.88
9415;BME280;4746;35.664;139.738;2023-03-15T05:05:57;101334.59;;;33.29;19.63
9415;BME280;4746;35.664;139.738;2023-03-15T05:08:24;101332.28;;;32.99;19.78
9415;BME280;4746;35.664;139.738;2023-03-15T05:10:52;101327.91;;;32.98;19.93
9415;BME280;4746;35.664;139.738;2023-03-15T05:13:20;101328.25;;;34.30;19.20
9415;BME280;4746;35.664;139.738;2023-03-15T05:15:47;101332.72;;;36.54;17.01
9415;BME280;4746;35.664;139.738;2023-03-15T05:18:15;101320.47;;;38.24;15.56
9415;BME280;4746;35.664;139.738;2023-03-15T05:20:43;101322.88;;;38.45;15.64
9415;BME280;4746;35.664;139.738;2023-03-15T05:23:10;101327.00;;;39.15;14.93
9415;BME280;4746;35.664;139.738;2023-03-15T05:25:39;101319.34;;;40.12;14.51
9415;BME280;4746;35.664;139.738;2023-03-15T05:28:07;101313.69;;;40.15;14.43
9415;BME280;4746;35.664;139.738;2023-03-15T05:30:35;101317.84;;;40.88;13.58
9415;BME280;4746;35.664;139.738;2023-03-15T05:33:02;101314.28;;;41.48;13.39
9415;BME280;4746;35.664;139.738;2023-03-15T05:35:30;101314.09;;;42.08;13.50
9415;BME280;4746;35.664;139.738;2023-03-15T05:37:58;101305.69;;;42.76;12.90
9415;BME280;4746;35.664;139.738;2023-03-15T05:40:27;101298.94;;;43.12;12.55
9415;BME280;4746;35.664;139.738;2023-03-15T05:42:56;101303.31;;;43.21;12.64
9415;BME280;4746;35.664;139.738;2023-03-15T05:45:24;101306.31;;;43.34;12.82
9415;BME280;4746;35.664;139.738;2023-03-15T05:47:51;101296.84;;;43.38;12.43
9415;BME280;4746;35.664;139.738;2023-03-15T05:50:19;101302.91;;;43.55;12.09
9415;BME280;4746;35.664;139.738;2023-03-15T05:52:52;101295.44;;;42.22;13.04
9415;BME280;4746;35.664;139.738;2023-03-15T05:55:20;101311.56;;;40.80;13.59
9415;BME280;4746;35.664;139.738;2023-03-15T05:57:47;101308.78;;;38.53;15.19
9415;BME280;4746;35.664;139.738;2023-03-15T06:00:16;101309.84;;;38.22;15.34
9415;BME280;4746;35.664;139.738;2023-03-15T06:02:45;101300.31;;;39.23;15.03
9415;BME280;4746;35.664;139.738;2023-03-15T06:05:13;101297.66;;;40.23;14.40
9415;BME280;4746;35.664;139.738;2023-03-15T06:07:41;101299.16;;;41.29;13.78
9415;BME280;4746;35.664;139.738;2023-03-15T06:10:10;101300.63;;;41.75;13.72
9415;BME280;4746;35.664;139.738;2023-03-15T06:12:37;101308.84;;;41.98;13.38
9415;BME280;4746;35.664;139.738;2023-03-15T06:15:07;101312.53;;;41.97;13.59
9415;BME280;4746;35.664;139.738;2023-03-15T06:17:35;101309.97;;;42.29;12.86
9415;BME280;4746;35.664;139.738;2023-03-15T06:20:03;101296.44;;;42.21;12.85
9415;BME280;4746;35.664;139.738;2023-03-15T06:22:31;101309.81;;;41.39;13.34
9415;BME280;4746;35.664;139.738;2023-03-15T06:24:59;101304.44;;;41.39;13.25
9415;BME280;4746;35.664;139.738;2023-03-15T06:27:26;101312.88;;;41.44;13.54
9415;BME280;4746;35.664;139.738;2023-03-15T06:29:54;101304.53;;;39.45;14.34
9415;BME280;4746;35.664;139.738;2023-03-15T06:32:22;101310.94;;;38.59;15.41
9415;BME280;4746;35.664;139.738;2023-03-15T06:34:50;101301.59;;;38.91;15.47
9415;BME280;4746;35.664;139.738;2023-03-15T06:37:17;101297.03;;;39.39;15.00
9415;BME280;4746;35.664;139.738;2023-03-15T06:39:45;101298.47;;;38.20;15.32
9415;BME280;4746;35.664;139.738;2023-03-15T06:42:13;101313.75;;;36.88;16.58
9415;BME280;4746;35.664;139.738;2023-03-15T06:44:41;101308.94;;;37.34;16.27
9415;BME280;4746;35.664;139.738;2023-03-15T06:47:12;101304.97;;;38.36;15.54
9415;BME280;4746;35.664;139.738;2023-03-15T06:49:40;101302.31;;;37.97;15.95
9415;BME280;4746;35.664;139.738;2023-03-15T06:52:10;101304.75;;;38.68;15.90
9415;BME280;4746;35.664;139.738;2023-03-15T06:54:38;101298.81;;;38.64;15.69
9415;BME280;4746;35.664;139.738;2023-03-15T06:57:05;101304.72;;;39.15;15.33
9415;BME280;4746;35.664;139.738;2023-03-15T06:59:33;101297.75;;;39.77;14.86
9415;BME280;4746;35.664;139.738;2023-03-15T07:02:01;101304.88;;;40.22;14.66
9415;BME280;4746;35.664;139.738;2023-03-15T07:04:28;101304.00;;;40.48;14.60
9415;BME280;4746;35.664;139.738;2023-03-15T07:06:57;101310.81;;;40.70;14.34
9415;BME280;4746;35.664;139.738;2023-03-15T07:09:24;101317.06;;;40.96;14.45
9415;BME280;4746;35.664;139.738;2023-03-15T07:11:52;101313.22;;;40.98;14.26
9415;BME280;4746;35.664;139.738;2023-03-15T07:14:19;101308.50;;;39.77;15.02
9415;BME280;4746;35.664;139.738;2023-03-15T07:16:48;101303.78;;;37.51;16.31
9415;BME280;4746;35.664;139.738;2023-03-15T07:19:16;101309.69;;;35.33;17.61
9415;BME280;4746;35.664;139.738;2023-03-15T07:21:43;101310.69;;;33.67;18.95
9415;BME280;4746;35.664;139.738;2023-03-15T07:24:11;101315.31;;;32.22;20.73
9415;BME280;4746;35.664;139.738;2023-03-15T07:26:39;101316.56;;;31.04;22.21
9415;BME280;4746;35.664;139.738;2023-03-15T07:29:06;101314.56;;;30.03;22.45
9415;BME280;4746;35.664;139.738;2023-03-15T07:31:34;101329.44;;;29.05;24.21
9415;BME280;4746;35.664;139.738;2023-03-15T07:34:01;101323.16;;;28.20;24.94
9415;BME280;4746;35.664;139.738;2023-03-15T07:36:29;101342.06;;;27.53;25.96
9415;BME280;4746;35.664;139.738;2023-03-15T07:38:58;101340.19;;;26.96;26.53
9415;BME280;4746;35.664;139.738;2023-03-15T07:41:25;101330.81;;;26.48;27.58
9415;BME280;4746;35.664;139.738;2023-03-15T07:43:53;101337.72;;;26.06;27.79
9415;BME280;4746;35.664;139.738;2023-03-15T07:46:20;101340.38;;;25.59;28.70
9415;BME280;4746;35.664;139.738;2023-03-15T07:48:48;101349.50;;;25.24;29.04
9415;BME280;4746;35.664;139.738;2023-03-15T07:51:16;101356.28;;;25.04;29.67
9415;BME280;4746;35.664;139.738;2023-03-15T07:53:43;101349.91;;;25.61;29.47
9415;BME280;4746;35.664;139.738;2023-03-15T07:56:11;101356.81;;;26.55;28.51
9415;BME280;4746;35.664;139.738;2023-03-15T07:58:38;101352.31;;;27.61;27.37
9415;BME280;4746;35.664;139.738;2023-03-15T08:01:06;101349.94;;;28.30;26.55
9415;BME280;4746;35.664;139.738;2023-03-15T08:03:34;101345.16;;;28.91;26.28
9415;BME280;4746;35.664;139.738;2023-03-15T08:06:02;101343.75;;;29.35;25.96
9415;BME280;4746;35.664;139.738;2023-03-15T08:08:29;101352.72;;;29.65;25.52
9415;BME280;4746;35.664;139.738;2023-03-15T08:10:57;101359.53;;;29.86;24.90
9415;BME280;4746;35.664;139.738;2023-03-15T08:13:25;101367.47;;;29.86;25.03
9415;BME280;4746;35.664;139.738;2023-03-15T08:15:53;101359.91;;;29.78;25.35
9415;BME280;4746;35.664;139.738;2023-03-15T08:18:20;101361.75;;;29.10;25.54
9415;BME280;4746;35.664;139.738;2023-03-15T08:20:48;101365.16;;;28.05;26.44
9415;BME280;4746;35.664;139.738;2023-03-15T08:23:16;101382.28;;;27.17;27.53
9415;BME280;4746;35.664;139.738;2023-03-15T08:25:44;101368.72;;;26.42;28.45
9415;BME280;4746;35.664;139.738;2023-03-15T08:28:12;101387.00;;;25.77;29.35
9415;BME280;4746;35.664;139.738;2023-03-15T08:30:42;101379.19;;;25.25;29.97
9415;BME280;4746;35.664;139.738;2023-03-15T08:33:10;101385.44;;;24.69;30.94
9415;BME280;4746;35.664;139.738;2023-03-15T08:35:38;101378.50;;;24.11;31.82
9415;BME280;4746;35.664;139.738;2023-03-15T08:38:08;101388.66;;;23.61;32.86
9415;BME280;4746;35.664;139.738;2023-03-15T08:40:35;101398.56;;;23.16;33.36
9415;BME280;4746;35.664;139.738;2023-03-15T08:43:04;101381.25;;;22.76;34.16
9415;BME280;4746;35.664;139.738;2023-03-15T08:45:32;101390.63;;;22.48;34.47
9415;BME280;4746;35.664;139.738;2023-03-15T08:48:00;101393.78;;;22.23;35.25
9415;BME280;4746;35.664;139.738;2023-03-15T08:50:28;101397.75;;;22.01;35.70
9415;BME280;4746;35.664;139.738;2023-03-15T08:52:57;101406.81;;;21.82;35.92
9415;BME280;4746;35.664;139.738;2023-03-15T08:55:25;101402.06;;;21.59;36.53
9415;BME280;4746;35.664;139.738;2023-03-15T08:57:52;101400.72;;;21.37;37.17
9415;BME280;4746;35.664;139.738;2023-03-15T09:00:21;101403.66;;;21.19;37.58
9415;BME280;4746;35.664;139.738;2023-03-15T09:02:50;101407.41;;;21.03;37.91
9415;BME280;4746;35.664;139.738;2023-03-15T09:05:20;101392.84;;;20.90;38.17
9415;BME280;4746;35.664;139.738;2023-03-15T09:07:49;101397.34;;;20.81;38.54
9415;BME280;4746;35.664;139.738;2023-03-15T09:10:20;101394.78;;;20.76;38.71
9415;BME280;4746;35.664;139.738;2023-03-15T09:12:51;101400.88;;;20.74;38.72
9415;BME280;4746;35.664;139.738;2023-03-15T09:15:19;101392.28;;;20.69;39.02
9415;BME280;4746;35.664;139.738;2023-03-15T09:17:49;101411.44;;;20.65;39.10
9415;BME280;4746;35.664;139.738;2023-03-15T09:20:18;101399.38;;;20.59;39.32
9415;BME280;4746;35.664;139.738;2023-03-15T09:22:54;101404.56;;;20.59;39.44
9415;BME280;4746;35.664;139.738;2023-03-15T09:25:24;101394.31;;;20.49;39.76
9415;BME280;4746;35.664;139.738;2023-03-15T09:27:52;101398.75;;;20.42;40.06
9415;BME280;4746;35.664;139.738;2023-03-15T09:30:20;101403.13;;;20.39;40.27
9415;BME280;4746;35.664;139.738;2023-03-15T09:32:49;101402.31;;;20.35;40.58
9415;BME280;4746;35.664;139.738;2023-03-15T09:35:19;101404.09;;;20.32;40.77
9415;BME280;4746;35.664;139.738;2023-03-15T09:37:50;101405.88;;;20.30;40.91
9415;BME280;4746;35.664;139.738;2023-03-15T09:40:59;101404.13;;;20.30;40.71
9415;BME280;4746;35.664;139.738;2023-03-15T09:53:01;101419.81;;;20.24;40.85
9415;BME280;4746;35.664;139.738;2023-03-15T09:55:31;101416.44;;;20.17;41.31
9415;BME280;4746;35.664;139.738;2023-03-15T09:58:20;101425.94;;;20.22;41.33
9415;BME280;4746;35.664;139.738;2023-03-15T10:00:57;101425.97;;;20.21;41.30
9415;BME280;4746;35.664;139.738;2023-03-15T10:03:49;101428.56;;;20.21;41.26
9415;BME280;4746;35.664;139.738;2023-03-15T10:06:18;101438.16;;;20.14;41.92
9415;BME280;4746;35.664;139.738;2023-03-15T10:08:57;101437.31;;;20.14;41.86
9415;BME280;4746;35.664;139.738;2023-03-15T10:20:32;101430.56;;;19.96;42.33
9415;BME280;4746;35.664;139.738;2023-03-15T10:23:31;101434.06;;;19.97;42.46
9415;BME280;4746;35.664;139.738;2023-03-15T10:26:05;101435.81;;;19.92;42.69
9415;BME280;4746;35.664;139.738;2023-03-15T10:28:36;101424.56;;;19.87;43.05
9415;BME280;4746;35.664;139.738;2023-03-15T10:31:36;101428.91;;;19.88;42.68
9415;BME280;4746;35.664;139.738;2023-03-15T10:34:07;101422.06;;;19.81;43.44
9415;BME280;4746;35.664;139.738;2023-03-15T10:36:35;101430.72;;;19.81;43.43
9415;BME280;4746;35.664;139.738;2023-03-15T10:39:03;101428.97;;;19.82;43.48
9415;BME280;4746;35.664;139.738;2023-03-15T10:41:44;101425.47;;;19.86;43.37
9415;BME280;4746;35.664;139.738;2023-03-15T10:44:23;101429.81;;;19.85;43.44
9415;BME280;4746;35.664;139.738;2023-03-15T10:47:06;101430.69;;;19.83;43.41
9415;BME280;4746;35.664;139.738;2023-03-15T10:49:40;101440.31;;;19.78;43.58
9415;BME280;4746;35.664;139.738;2023-03-15T10:52:43;101436.81;;;19.80;43.16
9415;BME280;4746;35.664;139.738;2023-03-15T10:55:20;101435.13;;;19.76;43.29
9415;BME280;4746;35.664;139.738;2023-03-15T10:58:24;101434.28;;;19.74;43.29
9415;BME280;4746;35.664;139.738;2023-03-15T11:01:21;101445.59;;;19.70;43.29
9415;BME280;4746;35.664;139.738;2023-03-15T11:04:16;101450.81;;;19.69;43.02
9415;BME280;4746;35.664;139.738;2023-03-15T11:07:04;101443.91;;;19.65;43.44
9415;BME280;4746;35.664;139.738;2023-03-15T11:09:54;101448.28;;;19.63;43.32
9415;BME280;4746;35.664;139.738;2023-03-15T11:12:32;101449.13;;;19.60;43.47
9415;BME280;4746;35.664;139.738;2023-03-15T11:15:08;101452.63;;;19.58;43.75
9415;BME280;4746;35.664;139.738;2023-03-15T11:17:46;101456.13;;;19.58;43.77
9415;BME280;4746;35.664;139.738;2023-03-15T11:20:35;101456.09;;;19.60;43.72
9415;BME280;4746;35.664;139.738;2023-03-15T11:23:18;101456.09;;;19.60;43.91
9415;BME280;4746;35.664;139.738;2023-03-15T11:25:47;101463.09;;;19.53;44.24
9415;BME280;4746;35.664;139.738;2023-03-15T11:28:27;101454.53;;;19.44;44.39
9415;BME280;4746;35.664;139.738;2023-03-15T11:30:59;101458.88;;;19.41;44.48
9415;BME280;4746;35.664;139.738;2023-03-15T11:34:01;101470.06;;;19.50;44.19
9415;BME280;4746;35.664;139.738;2023-03-15T11:36:37;101464.88;;;19.49;44.39
9415;BME280;4746;35.664;139.738;2023-03-15T11:39:12;101469.22;;;19.48;44.61
9415;BME280;4746;35.664;139.738;2023-03-15T11:42:21;101474.41;;;19.48;44.32
9415;BME280;4746;35.664;139.738;2023-03-15T11:44:57;101468.41;;;19.39;44.65
9415;BME280;4746;35.664;139.738;2023-03-15T11:48:03;101465.84;;;19.37;44.73
9415;BME280;4746;35.664;139.738;2023-03-15T11:50:30;101455.56;;;19.25;44.76
9415;BME280;4746;35.664;139.738;2023-03-15T11:53:02;101454.69;;;19.25;45.10
9415;BME280;4746;35.664;139.738;2023-03-15T11:55:33;101463.41;;;19.19;45.41
9415;BME280;4746;35.664;139.738;2023-03-15T11:58:28;101460.78;;;19.19;45.13
9415;BME280;4746;35.664;139.738;2023-03-15T12:01:09;101459.13;;;19.12;45.35
9415;BME280;4746;35.664;139.738;2023-03-15T12:03:43;101453.09;;;19.06;45.95
9415;BME280;4746;35.664;139.738;2023-03-15T12:08:51;101454.00;;;18.97;46.55
9415;BME280;4746;35.664;139.738;2023-03-15T12:14:04;101454.94;;;18.89;46.71
9415;BME280;4746;35.664;139.738;2023-03-15T12:16:41;101465.34;;;18.84;46.76
9415;BME280;4746;35.664;139.738;2023-03-15T12:19:20;101455.88;;;18.81;46.88
9415;BME280;4746;35.664;139.738;2023-03-15T12:21:57;101450.69;;;18.76;47.01
9415;BME280;4746;35.664;139.738;2023-03-15T12:24:36;101450.72;;;18.75;47.11
9415;BME280;4746;35.664;139.738;2023-03-15T12:27:19;101452.44;;;18.73;47.25
9415;BME280;4746;35.664;139.738;2023-03-15T12:29:58;101443.81;;;18.68;46.97
9415;BME280;4746;35.664;139.738;2023-03-15T12:32:35;101449.06;;;18.62;47.19
9415;BME280;4746;35.664;139.738;2023-03-15T12:35:19;101440.41;;;18.60;47.14
9415;BME280;4746;35.664;139.738;2023-03-15T12:37:51;101440.44;;;18.54;47.26
9415;BME280;4746;35.664;139.738;2023-03-15T12:56:23;101428.44;;;18.33;47.51
9415;BME280;4746;35.664;139.738;2023-03-15T12:59:16;101431.06;;;18.30;47.44
9415;BME280;4746;35.664;139.738;2023-03-15T13:01:45;101425.91;;;18.24;47.91
9415;BME280;4746;35.664;139.738;2023-03-15T13:04:13;101431.09;;;18.23;48.01
9415;BME280;4746;35.664;139.738;2023-03-15T13:10:18;101425.06;;;18.21;47.83
9415;BME280;4746;35.664;139.738;2023-03-15T13:15:35;101419.84;;;18.16;48.20
9415;BME280;4746;35.664;139.738;2023-03-15T13:18:22;101420.75;;;18.08;48.77
9415;BME280;4746;35.664;139.738;2023-03-15T13:21:19;101413.00;;;17.99;48.90
9415;BME280;4746;35.664;139.738;2023-03-15T13:23:55;101415.63;;;17.95;48.90
9415;BME280;4746;35.664;139.738;2023-03-15T13:26:42;101428.56;;;17.96;49.41
9415;BME280;4746;35.664;139.738;2023-03-15T13:29:17;101409.56;;;17.91;49.24
9415;BME280;4746;35.664;139.738;2023-03-15T13:31:59;101410.44;;;17.92;49.63
9415;BME280;4746;35.664;139.738;2023-03-15T13:34:30;101407.84;;;17.95;49.65
9415;BME280;4746;35.664;139.738;2023-03-15T13:37:00;101415.59;;;17.96;49.60
9415;BME280;4746;35.664;139.738;2023-03-15T13:39:33;101409.56;;;17.97;49.62
9415;BME280;4746;35.664;139.738;2023-03-15T13:42:17;101416.47;;;17.98;49.69
9415;BME280;4746;35.664;139.738;2023-03-15T13:45:13;101414.75;;;17.97;49.61
9415;BME280;4746;35.664;139.738;2023-03-15T13:47:44;101416.50;;;17.92;50.49
9415;BME280;4746;35.664;139.738;2023-03-15T13:50:19;101406.97;;;17.93;50.27
9415;BME280;4746;35.664;139.738;2023-03-15T13:52:48;101407.00;;;17.90;50.42
9415;BME280;4746;35.664;139.738;2023-03-15T13:55:22;101408.72;;;17.91;50.14
9415;BME280;4746;35.664;139.738;2023-03-15T13:57:57;101398.34;;;17.89;50.31
9415;BME280;4746;35.664;139.738;2023-03-15T14:00:26;101395.78;;;17.86;50.60
9415;BME280;4746;35.664;139.738;2023-03-15T14:03:05;101396.63;;;17.87;50.14
9415;BME280;4746;35.664;139.738;2023-03-15T14:05:44;101399.19;;;17.88;50.72